createdAt,value
2018-07-19T00:00:13.704Z,8.20
2018-07-19T00:02:40.954Z,9.27
2018-07-19T00:05:08.172Z,11.93
2018-07-19T00:07:35.374Z,12.03
2018-07-19T00:10:02.591Z,8.87
2018-07-19T00:12:29.767Z,8.60
2018-07-19T00:14:57.027Z,9.60
2018-07-19T00:17:24.328Z,10.20
2018-07-19T00:19:51.534Z,10.53
2018-07-19T00:22:18.666Z,8.00
2018-07-19T00:24:45.878Z,9.13
2018-07-19T00:27:13.050Z,7.73
2018-07-19T00:29:40.180Z,8.93
2018-07-19T00:32:07.798Z,8.60
2018-07-19T00:34:35.039Z,7.70
2018-07-19T00:37:02.238Z,7.00
2018-07-19T00:39:29.415Z,8.83
2018-07-19T00:41:56.551Z,9.63
2018-07-19T00:44:23.859Z,7.93
2018-07-19T00:46:51.048Z,7.13
2018-07-19T00:49:18.229Z,6.43
2018-07-19T00:51:45.356Z,8.73
2018-07-19T00:54:12.541Z,7.60
2018-07-19T00:56:39.776Z,7.60
2018-07-19T00:59:06.972Z,6.53
2018-07-19T01:01:34.176Z,6.07
2018-07-19T01:04:01.380Z,9.97
2018-07-19T01:06:28.623Z,9.20
2018-07-19T01:08:55.992Z,7.17
2018-07-19T01:11:23.216Z,6.40
2018-07-19T01:13:50.366Z,6.90
2018-07-19T01:16:17.750Z,6.10
2018-07-19T01:18:44.893Z,5.47
2018-07-19T01:21:12.180Z,6.13
2018-07-19T01:23:39.713Z,9.17
2018-07-19T01:26:06.841Z,5.40
2018-07-19T01:28:34.053Z,7.97
2018-07-19T01:31:01.297Z,7.27
2018-07-19T01:33:28.531Z,5.73
2018-07-19T01:35:55.736Z,6.90
2018-07-19T01:38:23.284Z,8.70
2018-07-19T01:40:50.585Z,5.80
2018-07-19T01:43:17.784Z,5.33
2018-07-19T01:45:45.012Z,5.20
2018-07-19T01:48:12.136Z,5.20
2018-07-19T01:50:39.353Z,5.47
2018-07-19T01:53:06.884Z,5.23
2018-07-19T01:55:34.101Z,4.87
2018-07-19T01:58:01.297Z,5.70
2018-07-19T02:00:28.567Z,4.53
2018-07-19T02:02:55.793Z,6.93
2018-07-19T02:05:22.966Z,5.47
2018-07-19T02:07:50.241Z,6.60
2018-07-19T02:10:17.376Z,7.67
2018-07-19T02:12:44.548Z,5.93
2018-07-19T02:15:11.792Z,7.17
2018-07-19T02:17:38.959Z,7.57
2018-07-19T02:20:06.168Z,6.40
2018-07-19T02:22:33.771Z,4.03
2018-07-19T02:25:00.939Z,5.97
2018-07-19T02:27:28.213Z,5.60
2018-07-19T02:29:55.422Z,5.87
2018-07-19T02:32:22.640Z,3.87
2018-07-19T02:34:49.789Z,6.20
2018-07-19T02:37:17.076Z,6.47
2018-07-19T02:39:44.293Z,6.10
2018-07-19T02:42:11.435Z,4.47
2018-07-19T02:44:38.695Z,5.07
2018-07-19T02:47:05.826Z,6.87
2018-07-19T02:49:33.509Z,4.00
2018-07-19T02:52:01.031Z,4.07
2018-07-19T02:54:28.188Z,3.83
2018-07-19T02:56:55.417Z,4.90
2018-07-19T02:59:22.603Z,4.83
2018-07-19T03:01:49.824Z,4.93
2018-07-19T03:04:17.048Z,5.50
2018-07-19T03:06:44.212Z,6.13
2018-07-19T03:09:11.424Z,7.43
2018-07-19T03:11:38.568Z,5.27
2018-07-19T03:14:05.822Z,4.50
2018-07-19T03:16:33.051Z,5.80
2018-07-19T03:19:00.241Z,5.97
2018-07-19T03:21:27.591Z,3.97
2018-07-19T03:23:54.759Z,5.57
2018-07-19T03:26:21.932Z,5.17
2018-07-19T03:28:49.152Z,5.97
2018-07-19T03:31:16.285Z,7.07
2018-07-19T03:33:43.456Z,4.43
2018-07-19T03:36:10.636Z,5.87
2018-07-19T03:38:37.805Z,4.93
2018-07-19T03:41:05.160Z,4.30
2018-07-19T03:43:32.663Z,6.50
2018-07-19T03:45:59.840Z,5.93
2018-07-19T03:48:26.976Z,4.23
2018-07-19T03:50:54.211Z,3.93
2018-07-19T03:53:21.412Z,4.80
2018-07-19T03:55:48.564Z,5.43
2018-07-19T03:58:15.820Z,6.13
2018-07-19T04:00:42.952Z,7.40
2018-07-19T04:03:10.146Z,3.83
2018-07-19T04:05:37.425Z,6.70
2018-07-19T04:08:04.691Z,3.33
2018-07-19T04:10:31.893Z,4.77
2018-07-19T04:12:59.134Z,5.03
2018-07-19T04:15:26.303Z,5.57
2018-07-19T04:17:54.750Z,4.97
2018-07-19T04:20:23.115Z,5.33
2018-07-19T04:22:50.524Z,5.93
2018-07-19T04:25:17.782Z,3.50
2018-07-19T04:27:44.955Z,5.40
2018-07-19T04:30:12.069Z,5.03
2018-07-19T04:32:39.279Z,3.80
2018-07-19T04:35:06.644Z,4.97
2018-07-19T04:37:33.789Z,8.17
2018-07-19T04:40:00.976Z,4.03
2018-07-19T04:42:28.128Z,5.20
2018-07-19T04:44:55.368Z,6.00
2018-07-19T04:47:23.136Z,6.63
2018-07-19T04:49:50.267Z,5.07
2018-07-19T04:52:17.460Z,4.63
2018-07-19T04:54:44.691Z,9.30
2018-07-19T04:57:11.837Z,5.60
2018-07-19T04:59:38.949Z,8.27
2018-07-19T05:02:06.170Z,5.73
2018-07-19T05:04:34.010Z,5.70
2018-07-19T05:07:01.158Z,7.67
2018-07-19T05:09:28.337Z,6.87
2018-07-19T05:11:55.527Z,6.07
2018-07-19T05:14:22.737Z,5.93
2018-07-19T05:16:49.874Z,5.73
2018-07-19T05:19:17.064Z,6.10
2018-07-19T05:21:44.228Z,6.73
2018-07-19T05:24:11.341Z,5.80
2018-07-19T05:26:38.480Z,6.20
2018-07-19T05:29:05.675Z,6.53
2018-07-19T05:31:32.813Z,5.30
2018-07-19T05:33:59.996Z,6.03
2018-07-19T05:36:27.196Z,7.07
2018-07-19T05:38:54.398Z,6.97
2018-07-19T05:41:21.576Z,5.13
2018-07-19T05:43:49.539Z,6.37
2018-07-19T05:46:16.698Z,5.90
2018-07-19T05:48:43.828Z,8.00
2018-07-19T05:51:11.016Z,5.10
2018-07-19T05:53:38.150Z,7.23
2018-07-19T05:56:05.303Z,8.73
2018-07-19T05:58:32.464Z,4.87
2018-07-19T06:00:59.640Z,7.87
2018-07-19T06:03:26.865Z,7.07
2018-07-19T06:05:54.019Z,6.83
2018-07-19T06:08:21.288Z,7.63
2018-07-19T06:10:48.439Z,5.80
2018-07-19T06:13:15.592Z,7.97
2018-07-19T06:15:42.779Z,9.97
2018-07-19T06:18:09.918Z,5.77
2018-07-19T06:20:37.072Z,5.93
2018-07-19T06:23:04.405Z,6.27
2018-07-19T06:25:31.641Z,8.10
2018-07-19T06:27:58.844Z,8.63
2018-07-19T06:30:26.038Z,7.50
2018-07-19T06:32:53.176Z,7.90
2018-07-19T06:35:20.403Z,6.63
2018-07-19T06:37:47.557Z,7.40
2018-07-19T06:40:15.351Z,6.43
2018-07-19T06:42:42.523Z,5.70
2018-07-19T06:45:10.576Z,8.17
2018-07-19T06:47:37.717Z,6.70
2018-07-19T06:50:04.916Z,6.23
2018-07-19T06:52:32.117Z,6.07
2018-07-19T06:54:59.307Z,5.40
2018-07-19T06:57:26.569Z,8.57
2018-07-19T06:59:53.705Z,6.07
2018-07-19T07:02:20.873Z,8.50
2018-07-19T07:04:48.167Z,5.03
2018-07-19T07:07:15.319Z,8.30
2018-07-19T07:09:42.463Z,5.53
2018-07-19T07:12:09.739Z,7.33
2018-07-19T07:14:36.893Z,5.57
2018-07-19T07:17:04.216Z,6.53
2018-07-19T07:19:31.417Z,6.27
2018-07-19T07:21:58.575Z,6.53
2018-07-19T07:24:26.173Z,6.10
2018-07-19T07:26:53.417Z,4.77
2018-07-19T07:29:20.513Z,5.83
2018-07-19T07:31:47.684Z,7.13
2018-07-19T07:34:14.977Z,6.00
2018-07-19T07:36:42.114Z,7.00
2018-07-19T07:39:10.101Z,5.13
2018-07-19T07:41:37.300Z,6.83
2018-07-19T07:44:04.533Z,9.60
2018-07-19T07:46:31.693Z,6.50
2018-07-19T07:48:58.907Z,6.17
2018-07-19T07:51:26.073Z,7.33
2018-07-19T07:53:53.284Z,6.83
2018-07-19T07:56:20.509Z,6.93
2018-07-19T07:58:47.636Z,8.87
2018-07-19T08:01:14.777Z,7.17
2018-07-19T08:03:42.008Z,8.13
2018-07-19T08:06:09.199Z,8.73
2018-07-19T08:08:36.344Z,8.77
2018-07-19T08:11:03.598Z,10.97
2018-07-19T08:13:30.836Z,8.03
2018-07-19T08:15:58.026Z,8.80
2018-07-19T08:18:25.306Z,7.47
2018-07-19T08:20:52.508Z,7.90
2018-07-19T08:23:19.659Z,9.07
2018-07-19T08:25:46.849Z,6.73
2018-07-19T08:28:14.020Z,6.47
2018-07-19T08:30:41.174Z,8.93
2018-07-19T08:33:08.412Z,7.40
2018-07-19T08:35:35.559Z,7.77
2018-07-19T08:38:02.711Z,7.73
2018-07-19T08:40:29.939Z,10.50
2018-07-19T08:42:57.136Z,8.50
2018-07-19T08:45:24.319Z,8.57
2018-07-19T08:47:51.506Z,8.07
2018-07-19T08:50:18.664Z,9.73
2018-07-19T08:52:45.865Z,8.73
2018-07-19T08:55:13.132Z,8.27
2018-07-19T08:57:40.247Z,8.63
2018-07-19T09:00:08.416Z,8.97
2018-07-19T09:02:35.640Z,8.30
2018-07-19T09:05:02.833Z,9.53
2018-07-19T09:07:30.890Z,8.40
2018-07-19T09:09:58.109Z,9.17
2018-07-19T09:12:25.295Z,8.53
2018-07-19T09:14:52.450Z,7.00
2018-07-19T09:17:19.676Z,9.00
2018-07-19T09:19:46.842Z,9.33
2018-07-19T09:22:13.976Z,7.73
2018-07-19T09:24:41.184Z,9.87
2018-07-19T09:27:08.323Z,7.80
2018-07-19T09:29:35.461Z,11.80
2018-07-19T09:32:02.645Z,8.60
2018-07-19T09:34:29.807Z,9.83
2018-07-19T09:36:57.007Z,8.47
2018-07-19T09:39:24.222Z,7.13
2018-07-19T09:41:51.403Z,10.33
2018-07-19T09:44:18.549Z,10.90
2018-07-19T09:46:45.760Z,8.53
2018-07-19T09:49:12.916Z,7.47
2018-07-19T09:51:40.058Z,7.47
2018-07-19T09:54:07.241Z,10.40
2018-07-19T09:56:34.390Z,8.07
2018-07-19T09:59:01.564Z,8.37
2018-07-19T10:01:28.812Z,10.30
2018-07-19T10:03:56.022Z,9.47
2018-07-19T10:06:23.179Z,9.87
2018-07-19T10:08:50.510Z,7.60
2018-07-19T10:11:17.672Z,8.47
2018-07-19T10:13:45.276Z,8.47
2018-07-19T10:16:12.396Z,10.57
2018-07-19T10:18:39.614Z,8.07
2018-07-19T10:21:06.765Z,7.30
2018-07-19T10:23:34.227Z,7.33
2018-07-19T10:26:01.401Z,8.00
2018-07-19T10:28:28.690Z,7.53
2018-07-19T10:30:55.972Z,8.10
2018-07-19T10:33:23.093Z,7.27
2018-07-19T10:35:50.224Z,8.07
2018-07-19T10:38:17.472Z,7.80
2018-07-19T10:40:44.674Z,7.67
2018-07-19T10:43:11.798Z,7.33
2018-07-19T10:45:38.990Z,6.40
2018-07-19T10:48:06.158Z,7.07
2018-07-19T10:50:33.304Z,10.90
2018-07-19T10:53:00.506Z,6.70
2018-07-19T10:55:27.713Z,6.30
2018-07-19T10:57:54.868Z,7.33
2018-07-19T11:00:22.073Z,7.67
2018-07-19T11:02:49.233Z,7.67
2018-07-19T11:05:16.379Z,5.60
2018-07-19T11:07:43.544Z,8.13
2018-07-19T11:10:10.751Z,7.50
2018-07-19T11:12:37.874Z,7.67
2018-07-19T11:15:05.129Z,8.07
2018-07-19T11:17:32.674Z,7.20
2018-07-19T11:19:59.836Z,5.27
2018-07-19T11:22:27.028Z,5.77
2018-07-19T11:24:54.188Z,8.03
2018-07-19T11:27:21.332Z,5.33
2018-07-19T11:29:48.492Z,5.40
2018-07-19T11:32:15.632Z,6.20
2018-07-19T11:34:42.745Z,5.23
2018-07-19T11:37:09.918Z,5.20
2018-07-19T11:39:37.049Z,5.17
2018-07-19T11:42:04.186Z,5.30
2018-07-19T11:44:31.412Z,5.30
2018-07-19T11:46:58.595Z,6.67
2018-07-19T11:49:25.720Z,7.00
2018-07-19T11:51:52.884Z,5.00
2018-07-19T11:54:20.029Z,5.50
2018-07-19T11:56:47.163Z,10.87
2018-07-19T11:59:14.317Z,8.67
2018-07-19T12:01:41.454Z,5.30
2018-07-19T12:04:08.656Z,7.73
2018-07-19T12:06:35.892Z,7.03
2018-07-19T12:09:05.064Z,5.63
2018-07-19T12:11:32.285Z,5.43
2018-07-19T12:13:59.483Z,6.63
2018-07-19T12:16:26.649Z,8.63
2018-07-19T12:18:53.778Z,6.80
2018-07-19T12:21:20.965Z,6.50
2018-07-19T12:23:48.096Z,5.53
2018-07-19T12:26:15.216Z,7.87
2018-07-19T12:28:42.472Z,5.97
2018-07-19T12:31:09.610Z,5.10
2018-07-19T12:33:36.775Z,6.57
2018-07-19T12:36:04.043Z,7.83
2018-07-19T12:38:31.184Z,6.43
2018-07-19T12:40:58.392Z,5.87
2018-07-19T12:43:25.539Z,5.27
2018-07-19T12:45:52.732Z,5.30
2018-07-19T12:48:19.848Z,8.97
2018-07-19T12:50:47.119Z,7.50
2018-07-19T12:53:14.280Z,6.50
2018-07-19T12:55:41.402Z,6.07
2018-07-19T12:58:08.632Z,5.97
2018-07-19T13:00:35.793Z,6.43
2018-07-19T13:03:02.970Z,4.93
2018-07-19T13:05:30.187Z,9.37
2018-07-19T13:07:57.352Z,7.57
2018-07-19T13:10:24.468Z,7.43
2018-07-19T13:12:51.703Z,5.63
2018-07-19T13:15:18.865Z,7.07
2018-07-19T13:17:45.991Z,6.37
2018-07-19T13:20:13.204Z,4.83
2018-07-19T13:22:40.344Z,7.30
2018-07-19T13:25:07.505Z,6.23
2018-07-19T13:27:34.701Z,8.87
2018-07-19T13:30:01.866Z,5.67
2018-07-19T13:32:29.005Z,6.30
2018-07-19T13:34:56.260Z,6.40
2018-07-19T13:37:23.407Z,4.40
2018-07-19T13:39:50.540Z,4.97
2018-07-19T13:42:17.820Z,3.77
2018-07-19T13:44:44.956Z,4.80
2018-07-19T13:47:12.076Z,3.83
2018-07-19T13:49:39.815Z,4.63
2018-07-19T13:52:06.954Z,5.67
2018-07-19T13:54:41.653Z,6.40
2018-07-19T13:57:08.762Z,4.73
2018-07-19T13:59:35.913Z,3.47
2018-07-19T14:02:03.257Z,5.97
2018-07-19T14:04:30.371Z,6.37
2018-07-19T14:06:57.791Z,3.50
2018-07-19T14:09:24.973Z,5.57
2018-07-19T14:11:52.131Z,5.93
2018-07-19T14:14:19.424Z,5.10
2018-07-19T14:16:46.659Z,7.80
2018-07-19T14:19:13.808Z,6.83
2018-07-19T14:21:40.938Z,6.70
2018-07-19T14:24:08.119Z,5.27
2018-07-19T14:26:35.247Z,4.87
2018-07-19T14:29:02.464Z,4.00
2018-07-19T14:31:29.766Z,5.53
2018-07-19T14:33:56.928Z,4.93
2018-07-19T14:36:24.056Z,3.73
2018-07-19T14:38:51.283Z,4.50
2018-07-19T14:41:18.425Z,2.93
2018-07-19T14:43:45.532Z,3.00
2018-07-19T14:46:12.700Z,4.00
2018-07-19T14:48:39.832Z,3.43
2018-07-19T14:51:07.652Z,3.23
2018-07-19T14:53:34.842Z,5.40
2018-07-19T14:56:01.992Z,5.27
2018-07-19T14:58:29.188Z,5.70
2018-07-19T15:00:56.463Z,5.03
2018-07-19T15:03:23.580Z,3.93
2018-07-19T15:05:50.718Z,4.90
2018-07-19T15:08:17.905Z,3.77
2018-07-19T15:10:45.012Z,6.07
2018-07-19T15:13:12.133Z,4.67
2018-07-19T15:15:39.371Z,5.00
2018-07-19T15:18:06.496Z,3.57
2018-07-19T15:20:33.659Z,2.53
2018-07-19T15:23:00.919Z,5.80
2018-07-19T15:25:28.327Z,2.87
2018-07-19T15:27:55.439Z,4.07
2018-07-19T15:30:22.657Z,2.60
2018-07-19T15:32:50.065Z,5.23
2018-07-19T15:35:17.184Z,3.53
2018-07-19T15:37:44.398Z,4.23
2018-07-19T15:40:11.509Z,4.03
2018-07-19T15:42:38.632Z,4.10
2018-07-19T15:45:06.326Z,4.70
2018-07-19T15:47:33.550Z,3.87
2018-07-19T15:50:00.714Z,2.10
2018-07-19T15:52:27.920Z,5.65
2018-07-19T15:54:55.073Z,3.95
2018-07-19T15:57:22.216Z,3.25
2018-07-19T15:59:49.404Z,5.10
2018-07-19T16:02:16.533Z,4.28
2018-07-19T16:04:43.689Z,5.83
2018-07-19T16:07:10.939Z,11.00
2018-07-19T16:09:38.104Z,3.87
2018-07-19T16:12:05.253Z,3.92
2018-07-19T16:14:32.445Z,4.28
2018-07-19T16:16:59.708Z,3.98
2018-07-19T16:19:26.863Z,3.62
2018-07-19T16:21:54.025Z,5.42
2018-07-19T16:24:21.160Z,6.90
2018-07-19T16:26:48.324Z,3.70
2018-07-19T16:29:15.487Z,3.45
2018-07-19T16:31:42.622Z,4.00
2018-07-19T16:34:09.773Z,5.17
2018-07-19T16:36:37.064Z,3.98
2018-07-19T16:39:06.687Z,3.05
2018-07-19T16:41:33.873Z,2.35
2018-07-19T16:44:01.066Z,2.62
2018-07-19T16:46:28.281Z,2.70
2018-07-19T16:48:55.355Z,3.65
2018-07-19T16:51:22.511Z,2.77
2018-07-19T16:53:49.641Z,3.42
2018-07-19T16:56:16.756Z,2.58
2018-07-19T16:58:43.928Z,3.05
2018-07-19T17:01:11.061Z,2.58
2018-07-19T17:03:38.163Z,4.37
2018-07-19T17:06:05.477Z,3.65
2018-07-19T17:08:32.653Z,4.95
2018-07-19T17:10:59.800Z,2.85
2018-07-19T17:13:26.957Z,4.55
2018-07-19T17:15:54.112Z,3.53
2018-07-19T17:18:21.315Z,4.00
2018-07-19T17:20:48.582Z,3.50
2018-07-19T17:23:15.700Z,3.73
2018-07-19T17:25:42.820Z,5.90
2018-07-19T17:28:10.012Z,4.70
2018-07-19T17:30:37.127Z,6.77
2018-07-19T17:33:04.302Z,3.83
2018-07-19T17:35:31.488Z,4.70
2018-07-19T17:37:58.706Z,3.47
2018-07-19T17:40:26.161Z,5.47
2018-07-19T17:42:53.339Z,4.90
2018-07-19T17:45:20.552Z,3.57
2018-07-19T17:47:47.680Z,3.10
2018-07-19T17:50:14.852Z,4.87
2018-07-19T17:52:41.991Z,5.43
2018-07-19T17:55:09.137Z,4.03
2018-07-19T17:57:36.304Z,4.03
2018-07-19T18:00:03.709Z,3.97
2018-07-19T18:02:30.901Z,4.10
2018-07-19T18:04:58.235Z,3.70
2018-07-19T18:07:25.351Z,5.17
2018-07-19T18:09:52.475Z,4.40
2018-07-19T18:12:19.643Z,5.90
2018-07-19T18:14:46.822Z,3.30
2018-07-19T18:17:13.989Z,5.20
2018-07-19T18:19:41.196Z,3.47
2018-07-19T18:22:08.318Z,3.50
2018-07-19T18:24:35.461Z,3.43
2018-07-19T18:27:02.656Z,6.03
2018-07-19T18:29:29.841Z,4.40
2018-07-19T18:31:56.951Z,4.70
2018-07-19T18:34:24.204Z,3.57
2018-07-19T18:36:51.344Z,4.97
2018-07-19T18:39:18.505Z,3.63
2018-07-19T18:41:45.669Z,6.13
2018-07-19T18:44:12.765Z,6.27
2018-07-19T18:46:39.871Z,3.90
2018-07-19T18:49:07.040Z,5.13
2018-07-19T18:51:34.193Z,4.37
2018-07-19T18:54:01.335Z,3.57
2018-07-19T18:56:28.563Z,4.87
2018-07-19T18:58:55.745Z,3.73
2018-07-19T19:01:22.867Z,3.67
2018-07-19T19:03:50.692Z,4.67
2018-07-19T19:06:19.283Z,4.30
2018-07-19T19:08:44.972Z,3.93
2018-07-19T19:11:12.153Z,3.60
2018-07-19T19:13:39.312Z,4.63
2018-07-19T19:16:06.471Z,3.87
2018-07-19T19:18:33.664Z,5.60
2018-07-19T19:21:00.942Z,4.13
2018-07-19T19:23:28.113Z,5.90
2018-07-19T19:25:55.307Z,6.10
2018-07-19T19:28:22.531Z,4.00
2018-07-19T19:30:49.644Z,4.20
2018-07-19T19:33:16.864Z,4.70
2018-07-19T19:35:43.988Z,3.93
2018-07-19T19:38:11.115Z,3.70
2018-07-19T19:40:38.323Z,4.07
2018-07-19T19:43:05.536Z,4.20
2018-07-19T19:45:32.696Z,4.03
2018-07-19T19:48:00.220Z,4.00
2018-07-19T19:50:27.346Z,5.20
2018-07-19T19:52:54.453Z,4.27
2018-07-19T19:55:21.645Z,5.07
2018-07-19T19:57:48.759Z,4.47
2018-07-19T20:00:15.933Z,4.43
2018-07-19T20:02:43.172Z,4.37
2018-07-19T20:05:10.321Z,4.53
2018-07-19T20:07:38.521Z,4.30
2018-07-19T20:10:07.374Z,4.30
2018-07-19T20:12:34.549Z,5.07
2018-07-19T20:15:01.715Z,4.17
2018-07-19T20:17:28.914Z,4.50
2018-07-19T20:19:56.040Z,4.23
2018-07-19T20:22:23.216Z,5.03
2018-07-19T20:24:50.375Z,4.23
2018-07-19T20:27:17.521Z,5.60
2018-07-19T20:29:44.692Z,4.40
2018-07-19T20:32:11.961Z,4.67
2018-07-19T20:34:39.066Z,7.60
2018-07-19T20:37:06.208Z,4.07
2018-07-19T20:39:33.439Z,5.40
2018-07-19T20:42:00.810Z,4.97
2018-07-19T20:44:27.943Z,5.07
2018-07-19T20:46:55.097Z,5.70
2018-07-19T20:49:22.263Z,5.80
2018-07-19T20:51:49.381Z,4.53
2018-07-19T20:54:16.523Z,4.30
2018-07-19T20:56:43.650Z,4.93
2018-07-19T20:59:10.810Z,4.27
2018-07-19T21:01:37.988Z,4.13
2018-07-19T21:04:05.158Z,5.50
2018-07-19T21:06:32.288Z,4.87
2018-07-19T21:08:59.472Z,5.40
2018-07-19T21:11:26.610Z,4.80
2018-07-19T21:13:53.756Z,5.03
2018-07-19T21:16:20.892Z,5.57
2018-07-19T21:18:47.999Z,6.97
2018-07-19T21:21:15.172Z,9.67
2018-07-19T21:23:42.414Z,8.63
2018-07-19T21:26:09.573Z,9.03
2018-07-19T21:28:36.704Z,9.87
2018-07-19T21:31:03.901Z,10.93
2018-07-19T21:33:31.033Z,14.37
2018-07-19T21:35:58.144Z,13.37
2018-07-19T21:38:25.356Z,10.83
2018-07-19T21:40:52.475Z,12.80
2018-07-19T21:43:19.727Z,9.83
2018-07-19T21:45:46.887Z,11.43
2018-07-19T21:48:14.013Z,10.47
2018-07-19T21:50:41.153Z,9.47
2018-07-19T21:53:08.333Z,9.80
2018-07-19T21:55:35.500Z,9.33
2018-07-19T21:58:02.628Z,10.50
2018-07-19T22:00:30.284Z,8.37
2018-07-19T22:02:58.711Z,8.47
2018-07-19T22:05:25.850Z,8.03
2018-07-19T22:07:53.101Z,7.17
2018-07-19T22:10:20.225Z,7.87
2018-07-19T22:12:47.368Z,7.60
2018-07-19T22:15:14.541Z,8.63
2018-07-19T22:17:41.676Z,8.77
2018-07-19T22:20:08.792Z,7.40
2018-07-19T22:22:35.979Z,8.53
2018-07-19T22:25:03.343Z,7.33
2018-07-19T22:27:30.528Z,8.47
2018-07-19T22:29:57.700Z,7.30
2018-07-19T22:32:24.804Z,7.20
2018-07-19T22:34:51.936Z,7.20
2018-07-19T22:37:19.171Z,7.27
2018-07-19T22:39:46.304Z,7.57
2018-07-19T22:42:13.437Z,8.20
2018-07-19T22:44:40.646Z,7.40
2018-07-19T22:47:07.759Z,7.57
2018-07-19T22:49:34.895Z,9.23
2018-07-19T22:52:02.043Z,7.53
2018-07-19T22:54:29.156Z,7.97
2018-07-19T22:56:56.251Z,7.83
2018-07-19T22:59:23.419Z,8.37
2018-07-19T23:01:50.540Z,7.10
2018-07-19T23:04:17.637Z,8.97
2018-07-19T23:06:44.846Z,8.40
2018-07-19T23:09:11.984Z,7.43
2018-07-19T23:11:39.135Z,8.03
2018-07-19T23:14:06.303Z,8.30
2018-07-19T23:16:33.457Z,10.13
2018-07-19T23:19:00.596Z,8.80
2018-07-19T23:21:27.789Z,8.50
2018-07-19T23:23:54.899Z,7.67
2018-07-19T23:26:22.128Z,8.83
2018-07-19T23:28:49.348Z,8.30
2018-07-19T23:31:16.584Z,8.23
2018-07-19T23:33:43.760Z,8.17
2018-07-19T23:36:17.404Z,8.40
2018-07-19T23:38:48.405Z,8.07
2018-07-19T23:41:24.616Z,8.47
2018-07-19T23:43:55.840Z,9.53
2018-07-19T23:46:28.767Z,9.67
2018-07-19T23:48:57.325Z,8.27
2018-07-19T23:51:24.443Z,9.07
2018-07-19T23:53:51.611Z,8.63
2018-07-19T23:56:18.748Z,8.87
2018-07-19T23:58:45.875Z,9.07
